Time;durP1;ratioP1;P1;durP2;ratioP2;P2;SDS_P1;SDS_P2;PMS_P1;PMS_P2;Temp;Humidity;BMP_temperature;BMP_pressure;BME280_temperature;BME280_humidity;BME280_pressure;Samples;Min_cycle;Max_cycle;Signal;HPM_P1;HPM_P2
2023/07/26 00:01:02;;;;;;;3.17;2.87;;;13.30;99.90;;;;;;5047563;28;20176;-72
2023/07/26 00:03:28;;;;;;;3.00;2.20;;;13.30;99.90;;;;;;5047647;28;20471;-72
2023/07/26 00:05:53;;;;;;;3.80;2.43;;;13.20;99.90;;;;;;5047601;28;20703;-72
2023/07/26 00:08:19;;;;;;;2.60;1.70;;;13.20;99.90;;;;;;5047279;28;20316;-72
2023/07/26 00:10:48;;;;;;;2.33;2.13;;;13.20;99.90;;;;;;5047700;28;20174;-72
2023/07/26 00:13:16;;;;;;;1.80;1.70;;;13.20;99.90;;;;;;5066494;28;20200;-72
2023/07/26 00:15:42;;;;;;;3.30;2.20;;;13.20;99.90;;;;;;5067427;28;20962;-72
2023/07/26 00:18:07;;;;;;;3.13;2.17;;;13.20;99.90;;;;;;5067266;28;20753;-71
2023/07/26 00:20:33;;;;;;;2.90;1.90;;;13.20;99.90;;;;;;5067947;28;20819;-72
2023/07/26 00:22:59;;;;;;;4.80;2.07;;;13.30;99.90;;;;;;5067945;28;20886;-72
2023/07/26 00:25:25;;;;;;;2.17;1.90;;;13.30;99.90;;;;;;5066912;28;20940;-72
2023/07/26 00:27:51;;;;;;;2.20;2.00;;;13.30;99.90;;;;;;5067379;28;20666;-72
2023/07/26 00:30:16;;;;;;;3.83;2.27;;;13.30;99.90;;;;;;5067138;28;20252;-72
2023/07/26 00:32:42;;;;;;;2.50;2.07;;;13.40;99.90;;;;;;5067555;28;20468;-72
2023/07/26 00:35:08;;;;;;;2.13;2.00;;;13.40;99.90;;;;;;5067006;28;20252;-72
2023/07/26 00:37:34;;;;;;;1.80;1.50;;;13.50;99.90;;;;;;5067397;28;20193;-72
2023/07/26 00:39:59;;;;;;;2.90;1.93;;;13.50;99.90;;;;;;5067171;28;20928;-71
2023/07/26 00:42:25;;;;;;;4.30;2.47;;;13.50;99.90;;;;;;5067153;28;20170;-72
2023/07/26 00:44:51;;;;;;;2.97;1.80;;;13.60;99.90;;;;;;5066899;28;20173;-72
2023/07/26 00:47:17;;;;;;;3.17;1.70;;;13.60;99.90;;;;;;5067217;28;20204;-72
2023/07/26 00:49:43;;;;;;;3.80;2.20;;;13.60;99.90;;;;;;5067444;28;20200;-72
2023/07/26 00:52:11;;;;;;;2.67;1.83;;;13.60;99.90;;;;;;5067232;28;20407;-72
2023/07/26 00:54:37;;;;;;;2.17;2.00;;;13.70;99.90;;;;;;5057705;28;20439;-71
2023/07/26 00:57:04;;;;;;;2.23;2.00;;;13.70;99.90;;;;;;5053752;28;20810;-72
2023/07/26 00:59:30;;;;;;;2.57;2.07;;;13.70;99.90;;;;;;5065635;28;20420;-72
2023/07/26 01:01:55;;;;;;;5.20;2.13;;;13.70;99.90;;;;;;5056262;28;20427;-72
2023/07/26 01:04:21;;;;;;;2.60;2.27;;;13.70;99.90;;;;;;5061894;28;20185;-72
2023/07/26 01:07:01;;;;;;;2.43;2.23;;;13.60;99.90;;;;;;5063235;28;20204;-72
2023/07/26 01:09:54;;;;;;;4.13;2.63;;;13.70;99.90;;;;;;5065261;28;20216;-71
2023/07/26 01:12:28;;;;;;;2.83;2.13;;;13.70;99.90;;;;;;5066711;28;20457;-71
2023/07/26 01:15:06;;;;;;;3.40;1.90;;;13.70;99.90;;;;;;5062165;28;20929;-71
2023/07/26 01:17:32;;;;;;;2.33;2.13;;;13.70;99.90;;;;;;5063649;28;20801;-71
2023/07/26 01:19:58;;;;;;;2.53;2.27;;;13.60;99.90;;;;;;5066388;28;20468;-71
2023/07/26 01:22:24;;;;;;;2.73;2.50;;;13.70;99.90;;;;;;5065451;28;20287;-71
2023/07/26 01:24:49;;;;;;;3.40;2.37;;;13.70;99.90;;;;;;5064226;28;20450;-71
2023/07/26 01:27:15;;;;;;;2.50;2.30;;;13.80;99.90;;;;;;5063929;28;20205;-72
2023/07/26 01:29:41;;;;;;;4.43;2.63;;;13.70;99.90;;;;;;5067455;28;20201;-74
2023/07/26 01:32:09;;;;;;;4.10;2.73;;;13.70;99.90;;;;;;5063799;28;20276;-72
2023/07/26 01:34:35;;;;;;;3.70;2.53;;;13.80;99.90;;;;;;5066768;28;20670;-73
2023/07/26 01:37:01;;;;;;;3.40;2.50;;;13.80;99.90;;;;;;5061825;28;20431;-72
2023/07/26 01:39:28;;;;;;;6.07;3.37;;;13.80;99.90;;;;;;5065613;28;20791;-72
2023/07/26 01:41:54;;;;;;;3.43;2.60;;;13.80;99.90;;;;;;5060832;28;20752;-73
2023/07/26 01:44:20;;;;;;;3.50;2.40;;;13.80;99.90;;;;;;5063368;28;20521;-73
2023/07/26 01:46:46;;;;;;;2.70;2.50;;;13.80;99.90;;;;;;5067805;28;20474;-72
2023/07/26 01:49:12;;;;;;;2.50;2.30;;;13.70;99.90;;;;;;5061198;28;20636;-73
2023/07/26 01:51:38;;;;;;;2.60;2.40;;;13.70;99.90;;;;;;5050483;28;20188;-72
2023/07/26 01:54:06;;;;;;;3.17;2.87;;;13.80;99.90;;;;;;5049437;28;20423;-72
2023/07/26 01:56:32;;;;;;;5.70;3.17;;;13.80;99.90;;;;;;5049433;28;20513;-72
2023/07/26 01:58:58;;;;;;;5.13;2.83;;;13.80;99.90;;;;;;5049079;28;20481;-72
2023/07/26 02:01:23;;;;;;;4.93;3.13;;;13.70;99.90;;;;;;5049645;28;20193;-72
2023/07/26 02:03:49;;;;;;;3.03;2.73;;;13.70;99.90;;;;;;5049237;28;20208;-72
2023/07/26 02:06:15;;;;;;;2.57;2.37;;;13.80;99.90;;;;;;5048233;28;20178;-72
2023/07/26 02:08:41;;;;;;;4.63;3.10;;;13.80;99.90;;;;;;5049529;28;20574;-72
2023/07/26 02:11:07;;;;;;;3.50;2.80;;;13.80;99.90;;;;;;5051999;28;20500;-73
2023/07/26 02:13:33;;;;;;;3.83;3.30;;;13.70;99.90;;;;;;5069307;28;20173;-72
2023/07/26 02:15:59;;;;;;;2.83;2.53;;;13.80;99.90;;;;;;5069124;28;20255;-72
2023/07/26 02:18:25;;;;;;;3.50;3.20;;;13.80;99.90;;;;;;5068210;28;21018;-72
2023/07/26 02:20:51;;;;;;;4.93;3.23;;;13.70;99.90;;;;;;5069523;28;20224;-72
2023/07/26 02:23:17;;;;;;;6.20;3.40;;;13.80;99.90;;;;;;5069205;28;20426;-72
2023/07/26 02:25:43;;;;;;;3.40;3.10;;;13.80;99.90;;;;;;5068495;28;20193;-72
2023/07/26 02:28:09;;;;;;;5.20;3.20;;;13.80;99.90;;;;;;5068903;28;20295;-72
2023/07/26 02:30:35;;;;;;;6.90;3.03;;;13.80;99.90;;;;;;5068806;28;20502;-72
2023/07/26 02:33:00;;;;;;;3.23;3.00;;;13.80;99.90;;;;;;5069093;28;20246;-72
2023/07/26 02:35:26;;;;;;;2.93;2.50;;;13.80;99.90;;;;;;5068426;28;20178;-72
2023/07/26 02:37:52;;;;;;;3.80;2.60;;;13.80;99.90;;;;;;5068855;28;20199;-73
2023/07/26 02:40:17;;;;;;;2.80;2.40;;;13.90;99.90;;;;;;5068979;28;20177;-73
2023/07/26 02:42:43;;;;;;;3.43;2.97;;;13.90;99.90;;;;;;5068888;28;20169;-72
2023/07/26 02:45:09;;;;;;;3.57;2.13;;;13.90;99.90;;;;;;5068449;28;20185;-72
2023/07/26 02:47:35;;;;;;;4.40;3.00;;;13.90;99.90;;;;;;5068761;28;20200;-72
2023/07/26 02:50:03;;;;;;;3.63;2.60;;;13.90;99.90;;;;;;5068673;28;20451;-72
2023/07/26 02:52:30;;;;;;;2.50;2.30;;;13.90;99.90;;;;;;5068627;28;20181;-71
2023/07/26 02:54:56;;;;;;;5.70;3.20;;;13.90;99.90;;;;;;5067790;28;20473;-72
2023/07/26 02:57:22;;;;;;;6.50;3.20;;;13.90;99.90;;;;;;5068579;28;20442;-72
2023/07/26 02:59:47;;;;;;;5.60;4.07;;;13.90;99.90;;;;;;5066301;28;20192;-71
2023/07/26 03:02:13;;;;;;;6.33;5.20;;;13.90;99.90;;;;;;5068641;28;20192;-72
2023/07/26 03:04:39;;;;;;;5.30;4.90;;;13.90;99.90;;;;;;5068011;28;20197;-72
2023/07/26 03:07:04;;;;;;;5.67;5.17;;;13.80;99.90;;;;;;5068362;28;20256;-72
2023/07/26 03:09:30;;;;;;;4.90;4.50;;;13.80;99.90;;;;;;5066905;28;20250;-71
2023/07/26 03:11:56;;;;;;;5.27;4.70;;;13.80;99.90;;;;;;5068449;28;20181;-71
2023/07/26 03:14:21;;;;;;;5.80;5.30;;;13.80;99.90;;;;;;5068081;28;20173;-72
2023/07/26 03:16:47;;;;;;;5.40;4.90;;;13.80;99.90;;;;;;5068115;28;20201;-71
2023/07/26 03:19:13;;;;;;;5.00;4.60;;;13.80;99.90;;;;;;5068657;28;20184;-71
2023/07/26 03:21:38;;;;;;;4.60;4.20;;;13.70;99.90;;;;;;5068198;28;20265;-72
2023/07/26 03:24:04;;;;;;;6.03;4.97;;;13.60;99.90;;;;;;5067710;28;20181;-71
2023/07/26 03:26:30;;;;;;;6.53;4.67;;;13.60;99.90;;;;;;5067762;28;20224;-71
2023/07/26 03:28:56;;;;;;;4.60;4.20;;;13.50;99.90;;;;;;5066274;28;20204;-71
2023/07/26 03:31:21;;;;;;;6.43;4.80;;;13.50;99.90;;;;;;5068019;28;20638;-71
2023/07/26 03:33:47;;;;;;;4.93;4.17;;;13.50;99.90;;;;;;5067692;28;20177;-71
2023/07/26 03:36:12;;;;;;;4.57;4.27;;;13.50;99.90;;;;;;5067608;28;20251;-71
2023/07/26 03:38:38;;;;;;;5.70;5.17;;;13.60;99.90;;;;;;5067994;28;20389;-71
2023/07/26 03:41:04;;;;;;;5.57;5.17;;;13.60;99.90;;;;;;5068070;28;20185;-71
2023/07/26 03:43:29;;;;;;;5.43;4.93;;;13.60;99.90;;;;;;5068271;28;20519;-71
2023/07/26 03:45:55;;;;;;;5.60;5.10;;;13.70;99.90;;;;;;5067706;28;20912;-70
2023/07/26 03:48:21;;;;;;;5.40;4.50;;;13.70;99.90;;;;;;5067822;28;20662;-71
2023/07/26 03:50:47;;;;;;;4.93;4.53;;;13.70;99.90;;;;;;5067850;28;20243;-71
2023/07/26 03:53:12;;;;;;;5.00;4.60;;;13.50;99.90;;;;;;5067920;28;20676;-71
2023/07/26 03:55:38;;;;;;;5.67;5.17;;;13.40;99.90;;;;;;5066979;28;20170;-71
2023/07/26 03:58:04;;;;;;;5.53;5.03;;;13.30;99.90;;;;;;5065898;28;20235;-71
2023/07/26 04:00:29;;;;;;;4.60;4.30;;;13.20;99.90;;;;;;5066375;28;20169;-71
2023/07/26 04:02:55;;;;;;;5.70;5.23;;;13.20;99.90;;;;;;5067733;28;20208;-71
2023/07/26 04:05:21;;;;;;;5.53;5.03;;;13.20;99.90;;;;;;5067169;28;20174;-71
2023/07/26 04:07:46;;;;;;;4.93;4.60;;;13.20;99.90;;;;;;5067605;28;20212;-71
2023/07/26 04:10:12;;;;;;;7.60;5.57;;;13.10;99.90;;;;;;5067611;28;20678;-71
2023/07/26 04:12:38;;;;;;;5.20;4.80;;;13.00;99.90;;;;;;5067347;28;20650;-71
2023/07/26 04:15:04;;;;;;;5.13;4.73;;;13.00;99.90;;;;;;5066905;28;20184;-71
2023/07/26 04:17:29;;;;;;;5.20;4.70;;;13.00;99.90;;;;;;5067643;28;20271;-71
2023/07/26 04:19:55;;;;;;;5.50;5.00;;;13.00;99.90;;;;;;5067433;28;20415;-71
2023/07/26 04:22:21;;;;;;;7.70;5.30;;;13.00;99.90;;;;;;5067583;28;20192;-71
2023/07/26 04:24:46;;;;;;;7.33;5.47;;;13.10;99.90;;;;;;5066591;28;20181;-71
2023/07/26 04:27:12;;;;;;;5.60;5.00;;;13.10;99.90;;;;;;5067376;28;20295;-70
2023/07/26 04:29:40;;;;;;;6.10;5.13;;;13.20;99.90;;;;;;5075713;28;20195;-71
2023/07/26 04:32:06;;;;;;;5.03;4.57;;;13.30;99.90;;;;;;5087956;28;20173;-70
2023/07/26 04:34:31;;;;;;;5.70;5.20;;;13.40;99.90;;;;;;5085998;28;20421;-71
2023/07/26 04:36:58;;;;;;;5.07;4.57;;;13.40;99.90;;;;;;5087242;28;20426;-71
2023/07/26 04:39:24;;;;;;;5.00;4.50;;;13.50;99.90;;;;;;5087799;28;20173;-72
2023/07/26 04:41:50;;;;;;;5.20;4.80;;;13.50;99.90;;;;;;5089703;28;20425;-72
2023/07/26 04:44:15;;;;;;;10.53;5.37;;;13.40;99.90;;;;;;5089886;28;20183;-72
2023/07/26 04:46:41;;;;;;;5.40;4.70;;;13.50;99.90;;;;;;5091168;28;20302;-72
2023/07/26 04:49:06;;;;;;;5.80;5.30;;;13.40;99.90;;;;;;5090453;28;20208;-72
2023/07/26 04:51:32;;;;;;;5.00;4.50;;;13.50;99.90;;;;;;5091191;28;20642;-71
2023/07/26 04:53:59;;;;;;;6.20;4.97;;;13.50;99.90;;;;;;5090667;28;20180;-71
2023/07/26 04:56:26;;;;;;;5.20;4.80;;;13.50;99.90;;;;;;5067763;28;20181;-72
2023/07/26 04:58:52;;;;;;;5.20;4.80;;;13.50;99.90;;;;;;5068242;28;21094;-72
2023/07/26 05:01:19;;;;;;;5.43;4.93;;;13.50;99.90;;;;;;5065251;28;20447;-71
2023/07/26 05:03:45;;;;;;;4.57;4.17;;;13.50;99.90;;;;;;5068853;28;20439;-72
2023/07/26 05:06:11;;;;;;;4.07;3.53;;;13.50;99.90;;;;;;5067660;28;20439;-72
2023/07/26 05:08:37;;;;;;;3.63;3.33;;;13.60;99.90;;;;;;5066498;28;20547;-71
2023/07/26 05:11:03;;;;;;;4.00;3.60;;;13.60;99.90;;;;;;5070135;28;20415;-72
2023/07/26 05:13:29;;;;;;;5.27;3.83;;;13.60;99.90;;;;;;5070539;28;20424;-71
2023/07/26 05:15:54;;;;;;;6.20;3.70;;;13.60;99.90;;;;;;5069994;28;20173;-71
2023/07/26 05:18:20;;;;;;;8.03;4.27;;;13.60;99.90;;;;;;5067785;28;20213;-71
2023/07/26 05:20:49;;;;;;;4.40;4.00;;;13.60;99.90;;;;;;5070509;28;20671;-71
2023/07/26 05:23:15;;;;;;;5.03;4.17;;;13.60;99.90;;;;;;5064701;28;20252;-72
2023/07/26 05:25:40;;;;;;;5.47;3.93;;;13.60;99.90;;;;;;5067438;28;20427;-72
2023/07/26 05:28:06;;;;;;;3.97;3.57;;;13.70;99.90;;;;;;5069672;28;20631;-72
2023/07/26 05:30:35;;;;;;;3.70;2.93;;;13.70;99.90;;;;;;5070081;28;20711;-72
2023/07/26 05:33:01;;;;;;;4.77;2.90;;;13.70;99.90;;;;;;5069439;28;20165;-72
2023/07/26 05:35:27;;;;;;;2.90;2.70;;;13.70;99.90;;;;;;5067531;28;20485;-72
2023/07/26 05:37:53;;;;;;;3.07;2.70;;;13.80;99.90;;;;;;5068556;28;20800;-72
2023/07/26 05:40:19;;;;;;;4.50;2.97;;;13.70;99.90;;;;;;5070227;28;20279;-71
2023/07/26 05:42:45;;;;;;;4.47;2.90;;;13.80;99.90;;;;;;5070105;28;20404;-73
2023/07/26 05:45:10;;;;;;;3.20;2.93;;;13.80;99.90;;;;;;5069574;28;20547;-73
2023/07/26 05:47:38;;;;;;;3.13;2.83;;;13.80;99.90;;;;;;5070254;28;20573;-73
2023/07/26 05:50:06;;;;;;;3.33;3.03;;;13.90;99.90;;;;;;5069929;28;20278;-73
2023/07/26 05:52:31;;;;;;;2.60;2.40;;;13.90;99.90;;;;;;5069168;28;20443;-73
2023/07/26 05:54:57;;;;;;;4.00;2.57;;;13.90;99.90;;;;;;5066784;28;20851;-72
2023/07/26 05:57:23;;;;;;;2.90;2.50;;;13.90;99.90;;;;;;5069757;28;20728;-72
2023/07/26 05:59:48;;;;;;;2.40;2.20;;;14.00;99.90;;;;;;5068046;28;20658;-73
2023/07/26 06:02:15;;;;;;;3.03;2.73;;;14.10;99.90;;;;;;5069739;28;20268;-73
2023/07/26 06:04:40;;;;;;;2.93;2.43;;;14.10;99.90;;;;;;5062385;28;20193;-72
2023/07/26 06:07:06;;;;;;;4.10;2.90;;;14.20;99.90;;;;;;5067855;28;20431;-73
2023/07/26 06:09:33;;;;;;;3.90;3.23;;;14.30;99.90;;;;;;5050701;28;20297;-72
2023/07/26 06:11:59;;;;;;;5.20;3.27;;;14.40;99.90;;;;;;5069263;28;20870;-72
2023/07/26 06:14:25;;;;;;;4.60;3.23;;;14.70;99.90;;;;;;5069491;28;20438;-72
2023/07/26 06:16:51;;;;;;;3.63;3.00;;;14.90;99.90;;;;;;5064222;28;20264;-73
2023/07/26 06:19:17;;;;;;;3.37;3.07;;;15.00;99.90;;;;;;5061772;28;20917;-73
2023/07/26 06:21:43;;;;;;;3.63;2.90;;;15.10;99.90;;;;;;5063280;28;20582;-73
2023/07/26 06:24:08;;;;;;;4.60;3.40;;;15.00;99.90;;;;;;5068201;28;20443;-73
2023/07/26 06:26:34;;;;;;;4.13;2.80;;;14.90;99.90;;;;;;5067349;28;20200;-73
2023/07/26 06:29:00;;;;;;;3.83;3.53;;;14.90;99.90;;;;;;5066059;28;20204;-73
2023/07/26 06:31:25;;;;;;;3.10;2.90;;;14.90;99.90;;;;;;5057974;28;20185;-73
2023/07/26 06:33:51;;;;;;;3.87;3.50;;;15.00;99.90;;;;;;5063024;28;20192;-73
2023/07/26 06:36:17;;;;;;;4.00;3.50;;;15.00;99.90;;;;;;5065719;28;20261;-73
2023/07/26 06:38:42;;;;;;;4.13;3.30;;;15.10;99.90;;;;;;5065520;28;20597;-73
2023/07/26 06:41:08;;;;;;;3.80;3.50;;;15.20;99.90;;;;;;5066450;28;20181;-73
2023/07/26 06:43:34;;;;;;;4.73;3.70;;;15.30;99.90;;;;;;5066568;28;20211;-73
2023/07/26 06:46:00;;;;;;;6.67;3.83;;;15.40;99.90;;;;;;5067181;28;20275;-72
2023/07/26 06:48:25;;;;;;;4.57;4.17;;;15.50;99.90;;;;;;5067732;28;20545;-73
2023/07/26 06:50:51;;;;;;;4.77;4.27;;;15.60;99.90;;;;;;5068569;28;20208;-73
2023/07/26 06:53:17;;;;;;;4.63;4.23;;;15.70;99.90;;;;;;5067827;28;20169;-72
2023/07/26 06:55:42;;;;;;;4.40;4.00;;;15.90;99.90;;;;;;5067562;28;20638;-73
2023/07/26 06:58:08;;;;;;;4.50;4.10;;;16.00;99.90;;;;;;5067675;28;20247;-72
2023/07/26 07:00:35;;;;;;;5.60;5.10;;;16.00;99.90;;;;;;5068652;28;20173;-73
2023/07/26 07:03:03;;;;;;;5.60;5.00;;;16.10;99.90;;;;;;5068507;28;20184;-73
2023/07/26 07:05:30;;;;;;;4.73;4.33;;;16.00;99.90;;;;;;5067136;28;21203;-73
2023/07/26 07:07:56;;;;;;;5.77;5.07;;;15.90;99.90;;;;;;5068421;28;20509;-73
2023/07/26 07:10:22;;;;;;;6.80;4.60;;;16.10;99.90;;;;;;5068261;28;20504;-73
2023/07/26 07:12:48;;;;;;;6.53;5.67;;;16.30;99.90;;;;;;5068320;28;20815;-73
2023/07/26 07:15:14;;;;;;;6.90;5.93;;;16.50;99.90;;;;;;5067870;28;20490;-73
2023/07/26 07:17:40;;;;;;;7.00;5.93;;;16.60;99.90;;;;;;5066800;28;20690;-72
2023/07/26 07:20:07;;;;;;;6.33;5.73;;;16.60;99.90;;;;;;5068519;28;20429;-73
2023/07/26 07:22:36;;;;;;;7.90;5.80;;;16.70;99.90;;;;;;5067900;28;20258;-73
2023/07/26 07:25:02;;;;;;;6.63;6.00;;;16.70;99.90;;;;;;5068211;28;20407;-73
2023/07/26 07:27:28;;;;;;;7.93;5.67;;;16.80;99.90;;;;;;5067734;28;20435;-73
2023/07/26 07:29:54;;;;;;;6.80;6.20;;;16.90;99.90;;;;;;5068282;28;20970;-73
2023/07/26 07:32:19;;;;;;;11.20;8.87;;;17.00;99.90;;;;;;5068122;28;20581;-73
2023/07/26 07:34:45;;;;;;;8.70;7.80;;;17.00;99.90;;;;;;5066995;28;20582;-73
2023/07/26 07:37:11;;;;;;;8.63;7.80;;;16.90;99.90;;;;;;5067602;28;20189;-73
2023/07/26 07:39:37;;;;;;;9.17;7.90;;;16.90;99.90;;;;;;5067461;28;20825;-73
2023/07/26 07:42:03;;;;;;;7.93;7.13;;;16.90;99.90;;;;;;5068012;28;20181;-73
2023/07/26 07:44:29;;;;;;;8.33;7.63;;;16.90;99.90;;;;;;5049171;28;20423;-73
2023/07/26 07:46:55;;;;;;;8.80;8.00;;;17.00;99.90;;;;;;5067691;28;20193;-73
2023/07/26 07:49:21;;;;;;;9.13;8.20;;;17.00;99.90;;;;;;5067757;28;20830;-73
2023/07/26 07:51:47;;;;;;;10.23;7.50;;;17.00;99.90;;;;;;5067710;28;20231;-73
2023/07/26 07:54:13;;;;;;;9.80;8.80;;;16.90;99.90;;;;;;5067365;28;20412;-72
2023/07/26 07:56:39;;;;;;;10.80;9.70;;;17.00;99.90;;;;;;5066755;28;20481;-73
2023/07/26 07:59:05;;;;;;;9.13;8.33;;;16.80;99.90;;;;;;5066379;28;20185;-73
2023/07/26 08:01:30;;;;;;;9.77;8.87;;;16.80;99.90;;;;;;5067737;28;20403;-72
2023/07/26 08:03:59;;;;;;;10.77;9.50;;;16.90;99.90;;;;;;5067192;28;20188;-72
2023/07/26 08:06:28;;;;;;;10.13;8.60;;;16.90;99.90;;;;;;5067447;28;20217;-72
2023/07/26 08:08:54;;;;;;;8.20;7.50;;;17.00;99.90;;;;;;5067379;28;21081;-72
2023/07/26 08:11:20;;;;;;;9.77;8.43;;;17.00;99.90;;;;;;5067789;28;20415;-71
2023/07/26 08:13:46;;;;;;;8.37;7.57;;;17.10;99.90;;;;;;5066794;28;20181;-71
2023/07/26 08:16:12;;;;;;;9.37;7.20;;;17.20;99.90;;;;;;5067377;28;20457;-71
2023/07/26 08:18:38;;;;;;;7.87;7.13;;;17.20;99.90;;;;;;5071630;28;20173;-71
2023/07/26 08:21:04;;;;;;;8.20;7.50;;;17.30;99.90;;;;;;5072040;28;20181;-70
2023/07/26 08:23:30;;;;;;;8.83;8.00;;;17.40;99.90;;;;;;5071282;28;20417;-71
2023/07/26 08:26:01;;;;;;;8.10;7.30;;;17.40;99.90;;;;;;5070915;28;20486;-71
2023/07/26 08:28:27;;;;;;;11.27;9.77;;;17.40;99.90;;;;;;5071247;28;20204;-71
2023/07/26 08:30:52;;;;;;;12.60;9.57;;;17.40;99.90;;;;;;5071426;28;20613;-71
2023/07/26 08:33:18;;;;;;;10.57;9.63;;;17.50;99.90;;;;;;5071849;28;20211;-71
2023/07/26 08:35:44;;;;;;;11.03;10.03;;;17.60;99.90;;;;;;5070803;28;20165;-71
2023/07/26 08:38:10;;;;;;;11.50;10.40;;;17.50;99.90;;;;;;5071348;28;20247;-71
2023/07/26 08:40:36;;;;;;;10.77;9.80;;;17.50;99.90;;;;;;5071395;28;20201;-72
2023/07/26 08:43:05;;;;;;;10.53;9.43;;;17.30;99.90;;;;;;5069825;28;20454;-72
2023/07/26 08:45:32;;;;;;;10.60;9.70;;;17.30;99.90;;;;;;5070545;28;20242;-72
2023/07/26 08:47:59;;;;;;;9.50;8.70;;;17.40;99.90;;;;;;5070848;28;20481;-72
2023/07/26 08:50:25;;;;;;;10.47;9.50;;;17.50;99.90;;;;;;5071194;28;20439;-71
2023/07/26 08:52:50;;;;;;;10.17;9.20;;;17.60;99.90;;;;;;5071041;28;20897;-71
2023/07/26 08:55:17;;;;;;;11.80;10.70;;;17.70;99.90;;;;;;5070283;28;20406;-72
2023/07/26 08:57:43;;;;;;;11.23;10.23;;;17.70;99.90;;;;;;5070867;28;20685;-72
2023/07/26 09:00:11;;;;;;;9.67;8.83;;;17.70;99.90;;;;;;5070954;28;20407;-72
2023/07/26 09:02:40;;;;;;;10.07;9.17;;;17.80;99.90;;;;;;5070911;28;21150;-72
2023/07/26 09:05:08;;;;;;;8.77;8.07;;;17.90;99.90;;;;;;5070258;28;20416;-72
2023/07/26 09:07:35;;;;;;;9.73;8.93;;;18.10;99.90;;;;;;5071072;28;20817;-71
2023/07/26 09:10:01;;;;;;;8.20;7.50;;;18.20;99.90;;;;;;5070699;28;20455;-72
2023/07/26 09:12:28;;;;;;;11.90;8.37;;;18.20;99.90;;;;;;5070842;28;20414;-71
2023/07/26 09:14:57;;;;;;;10.47;9.37;;;18.30;99.90;;;;;;5070100;28;20460;-71
2023/07/26 09:17:39;;;;;;;8.77;7.93;;;18.40;99.90;;;;;;5070672;28;20527;-71
2023/07/26 09:20:20;;;;;;;8.00;7.40;;;18.50;99.90;;;;;;5070881;28;20884;-71
2023/07/26 09:22:46;;;;;;;7.67;6.97;;;18.50;99.90;;;;;;5069324;28;20423;-71
2023/07/26 09:25:12;;;;;;;8.17;7.47;;;18.50;99.90;;;;;;5070127;28;20415;-71
2023/07/26 09:27:53;;;;;;;7.17;6.47;;;18.40;99.90;;;;;;5070106;28;20300;-72
2023/07/26 09:30:24;;;;;;;6.20;5.70;;;18.60;99.90;;;;;;5070391;28;20205;-71
2023/07/26 09:32:49;;;;;;;6.20;5.70;;;18.60;99.90;;;;;;5070439;28;20491;-71
2023/07/26 09:35:15;;;;;;;6.27;5.70;;;18.70;99.90;;;;;;5070237;28;20495;-71
2023/07/26 09:37:41;;;;;;;10.33;7.50;;;18.60;99.90;;;;;;5070553;28;20192;-71
2023/07/26 09:40:07;;;;;;;7.53;6.80;;;18.40;99.90;;;;;;5070589;28;20306;-71
2023/07/26 09:42:46;;;;;;;8.40;7.60;;;18.30;99.90;;;;;;5070780;28;20177;-72
2023/07/26 09:45:18;;;;;;;6.17;5.40;;;18.00;99.90;;;;;;5069935;28;20418;-71
2023/07/26 09:47:44;;;;;;;5.53;4.63;;;17.50;99.90;;;;;;5070121;28;20436;-72
2023/07/26 09:50:27;;;;;;;5.77;3.40;;;17.20;99.90;;;;;;5070328;28;20731;-71
2023/07/26 09:52:54;;;;;;;8.57;3.53;;;16.60;99.90;;;;;;5070174;28;20309;-71
2023/07/26 09:55:25;;;;;;;2.23;1.70;;;16.20;99.90;;;;;;5068802;28;20776;-72
2023/07/26 09:57:55;;;;;;;2.53;1.70;;;15.80;99.90;;;;;;5069715;28;20439;-71
2023/07/26 10:00:23;;;;;;;2.53;1.93;;;15.40;99.90;;;;;;5070119;28;20494;-71
2023/07/26 10:02:57;;;;;;;2.03;1.80;;;15.20;99.90;;;;;;5069775;28;20412;-72
2023/07/26 10:05:27;;;;;;;2.10;1.80;;;15.10;99.90;;;;;;5069190;28;20419;-72
2023/07/26 10:07:53;;;;;;;2.00;1.67;;;14.80;99.90;;;;;;5069763;28;20534;-71
2023/07/26 10:10:21;;;;;;;2.80;2.00;;;14.70;99.90;;;;;;5069680;28;20819;-72
2023/07/26 10:12:48;;;;;;;2.00;1.90;;;14.60;99.90;;;;;;5069459;28;20461;-72
2023/07/26 10:15:16;;;;;;;3.80;2.10;;;14.50;99.90;;;;;;5068885;28;20407;-71
2023/07/26 10:17:47;;;;;;;3.27;2.63;;;14.50;99.90;;;;;;5069405;28;20486;-71
2023/07/26 10:20:14;;;;;;;2.17;1.90;;;14.50;99.90;;;;;;5069464;28;20551;-71
2023/07/26 10:22:41;;;;;;;2.30;2.10;;;14.40;99.90;;;;;;5069543;28;20906;-72
2023/07/26 10:25:08;;;;;;;2.40;1.97;;;14.50;99.90;;;;;;5068256;28;20892;-72
2023/07/26 10:27:34;;;;;;;3.13;2.63;;;14.50;99.90;;;;;;5069438;28;20435;-71
2023/07/26 10:30:00;;;;;;;3.17;2.53;;;14.60;99.90;;;;;;5068866;28;20462;-72
2023/07/26 10:32:26;;;;;;;3.33;2.33;;;14.60;99.90;;;;;;5069331;28;20404;-72
2023/07/26 10:34:59;;;;;;;2.60;2.40;;;14.80;99.90;;;;;;5068571;28;20408;-72
2023/07/26 10:37:32;;;;;;;3.47;2.80;;;15.00;99.90;;;;;;5052603;28;20220;-71
2023/07/26 10:39:59;;;;;;;3.87;2.63;;;15.30;99.90;;;;;;5056834;28;20435;-71
2023/07/26 10:42:26;;;;;;;3.00;2.37;;;15.50;99.90;;;;;;5063784;28;20502;-72
2023/07/26 10:44:58;;;;;;;3.30;2.40;;;15.90;99.90;;;;;;5060736;28;20807;-71
2023/07/26 10:47:24;;;;;;;2.80;2.60;;;16.10;99.90;;;;;;5063681;28;20801;-72
2023/07/26 10:49:52;;;;;;;2.50;2.30;;;16.40;99.90;;;;;;5068540;28;20471;-71
2023/07/26 10:52:18;;;;;;;3.00;2.70;;;16.60;99.90;;;;;;5062203;28;20507;-71
2023/07/26 10:54:46;;;;;;;3.60;3.30;;;16.70;99.90;;;;;;5064826;28;20419;-72
2023/07/26 10:57:20;;;;;;;3.57;3.27;;;16.90;99.90;;;;;;5063484;28;20803;-71
2023/07/26 11:00:01;;;;;;;4.60;4.10;;;17.20;99.90;;;;;;5064355;28;20765;-72
2023/07/26 11:02:37;;;;;;;4.93;3.30;;;17.30;99.90;;;;;;5065728;28;20788;-71
2023/07/26 11:05:06;;;;;;;3.70;3.40;;;17.40;99.90;;;;;;5057384;28;20427;-71
2023/07/26 11:07:58;;;;;;;3.87;3.47;;;17.30;99.90;;;;;;5063628;28;20447;-71
2023/07/26 11:10:33;;;;;;;4.20;3.80;;;17.50;99.90;;;;;;5061427;28;21031;-71
2023/07/26 11:13:10;;;;;;;5.43;4.17;;;17.60;99.90;;;;;;5059657;28;20857;-71
2023/07/26 11:15:47;;;;;;;5.90;4.20;;;17.70;99.90;;;;;;5061103;28;20488;-71
2023/07/26 11:18:15;;;;;;;4.97;4.47;;;17.90;99.90;;;;;;5059086;28;20432;-72
2023/07/26 11:20:50;;;;;;;5.50;5.00;;;18.00;99.90;;;;;;5062166;28;20412;-71
2023/07/26 11:23:22;;;;;;;5.47;5.00;;;18.00;99.90;;;;;;5057422;28;20426;-71
2023/07/26 11:25:50;;;;;;;7.07;6.20;;;18.10;99.90;;;;;;5067075;28;20462;-71
2023/07/26 11:28:16;;;;;;;7.97;5.33;;;18.10;99.90;;;;;;5066546;28;20442;-71
2023/07/26 11:30:49;;;;;;;5.90;5.17;;;18.20;99.90;;;;;;5066311;28;20411;-71
2023/07/26 11:33:31;;;;;;;6.53;5.87;;;18.30;99.90;;;;;;5066640;28;20632;-71
2023/07/26 11:35:59;;;;;;;8.13;6.10;;;18.40;99.90;;;;;;5065635;28;20416;-71
2023/07/26 11:38:25;;;;;;;6.23;4.60;;;18.60;99.90;;;;;;5067132;28;20431;-71
2023/07/26 11:40:53;;;;;;;5.33;4.67;;;18.60;99.90;;;;;;5064689;28;20412;-72
2023/07/26 11:43:20;;;;;;;6.07;5.47;;;18.70;99.90;;;;;;5066075;28;20916;-71
2023/07/26 11:45:46;;;;;;;5.40;4.87;;;18.80;99.90;;;;;;5064881;28;20820;-71
2023/07/26 11:48:14;;;;;;;9.47;7.07;;;19.00;99.90;;;;;;5067190;28;20463;-71
2023/07/26 11:50:40;;;;;;;7.13;6.10;;;19.10;99.90;;;;;;5058282;28;20433;-72
2023/07/26 11:53:12;;;;;;;6.47;5.70;;;19.20;99.90;;;;;;5062473;28;20479;-72
2023/07/26 11:55:39;;;;;;;6.10;5.50;;;19.30;99.90;;;;;;5060388;28;20423;-72
2023/07/26 11:58:08;;;;;;;6.20;5.60;;;19.40;99.90;;;;;;5063758;28;20443;-72
2023/07/26 12:00:43;;;;;;;6.80;6.07;;;19.40;99.90;;;;;;5058726;28;20507;-72
2023/07/26 12:03:10;;;;;;;6.30;5.70;;;19.50;99.90;;;;;;5060801;28;20492;-72
2023/07/26 12:05:42;;;;;;;6.57;5.90;;;19.40;99.90;;;;;;5057285;28;20416;-72
2023/07/26 12:08:08;;;;;;;7.40;5.27;;;19.30;99.90;;;;;;5061039;28;20500;-72
2023/07/26 12:10:39;;;;;;;6.07;5.60;;;19.30;99.90;;;;;;5063805;28;20451;-72
2023/07/26 12:13:08;;;;;;;6.90;6.30;;;19.20;99.90;;;;;;5066051;28;20515;-72
2023/07/26 12:15:54;;;;;;;6.67;5.50;;;19.00;99.90;;;;;;5062099;28;20423;-72
2023/07/26 12:18:21;;;;;;;6.93;6.23;;;19.00;99.90;;;;;;5055744;28;20483;-72
2023/07/26 12:20:56;;;;;;;6.30;5.30;;;19.10;99.90;;;;;;5062316;28;20414;-72
2023/07/26 12:23:22;;;;;;;6.37;5.87;;;19.30;99.90;;;;;;5063757;28;20421;-72
2023/07/26 12:25:52;;;;;;;5.90;5.40;;;19.50;99.90;;;;;;5060527;28;20600;-72
2023/07/26 12:28:18;;;;;;;6.67;6.10;;;19.60;99.90;;;;;;5061447;28;20527;-72
2023/07/26 12:31:02;;;;;;;6.60;6.00;;;19.60;99.90;;;;;;5069958;28;20499;-73
2023/07/26 12:33:28;;;;;;;7.27;6.20;;;19.40;99.90;;;;;;5052804;28;20544;-73
2023/07/26 12:35:55;;;;;;;6.50;5.93;;;19.30;99.90;;;;;;5063132;28;20408;-72
2023/07/26 12:38:22;;;;;;;6.27;5.77;;;19.20;99.90;;;;;;5063117;28;20519;-72
2023/07/26 12:40:50;;;;;;;5.60;5.10;;;19.20;99.90;;;;;;5060640;28;20416;-72
2023/07/26 12:43:28;;;;;;;5.70;5.17;;;19.10;99.90;;;;;;5061244;28;20471;-72
2023/07/26 12:45:59;;;;;;;9.83;5.60;;;19.10;99.90;;;;;;5057167;28;20793;-72